Time,TemperatureF,DewpointF,PressureIn,WindDirection,WindDirectionDegrees,WindSpeedMPH,WindSpeedGustMPH,Humidity,HourlyPrecipIn,Conditions,Clouds,dailyrainin,SoftwareType,DateUTC
2013-10-06 00:04:00,41.5,41.4,29.73,SW,225,0.0,0.0,99,0.00,,,0.00,meteobridge,2013-10-06 05:04:00,
2013-10-06 00:10:00,41.4,41.2,29.72,SW,225,0.0,0.0,99,0.00,,,0.00,meteobridge,2013-10-06 05:10:00,
2013-10-06 00:15:00,41.2,41.0,29.72,West,270,1.6,1.6,99,0.00,,,0.00,meteobridge,2013-10-06 05:15:00,
2013-10-06 00:21:00,41.4,41.2,29.72,West,270,0.0,0.0,99,0.00,,,0.00,meteobridge,2013-10-06 05:21:00,
2013-10-06 00:27:00,41.4,41.2,29.72,South,180,0.0,0.0,99,0.00,,,0.00,meteobridge,2013-10-06 05:27:00,
2013-10-06 00:32:00,41.2,41.0,29.72,SW,225,0.0,0.0,99,0.00,,,0.00,meteobridge,2013-10-06 05:32:00,
2013-10-06 00:38:00,41.4,41.2,29.72,SW,225,0.0,0.0,99,0.00,,,0.00,meteobridge,2013-10-06 05:38:00,
2013-10-06 00:44:00,41.7,41.5,29.72,NE,45,0.0,0.0,99,0.00,,,0.00,meteobridge,2013-10-06 05:44:00,
2013-10-06 00:49:00,42.1,41.9,29.72,East,90,0.0,0.0,99,0.00,,,0.00,meteobridge,2013-10-06 05:49:00,
2013-10-06 00:55:00,42.3,42.1,29.72,South,180,0.0,0.0,99,0.00,,,0.00,meteobridge,2013-10-06 05:55:00,
2013-10-06 01:00:00,42.6,42.4,29.72,SW,225,0.0,0.0,99,0.00,,,0.00,meteobridge,2013-10-06 06:00:00,
2013-10-06 01:06:00,43.2,42.6,29.71,South,180,0.0,0.0,98,0.00,,,0.00,meteobridge,2013-10-06 06:06:00,
2013-10-06 01:12:00,43.3,42.8,29.71,SE,135,0.0,0.0,98,0.00,,,0.00,meteobridge,2013-10-06 06:12:00,
2013-10-06 01:17:00,43.3,42.8,29.71,SE,135,1.6,2.2,98,0.00,,,0.00,meteobridge,2013-10-06 06:17:00,
2013-10-06 01:23:00,43.2,42.6,29.71,South,180,1.6,1.6,98,0.00,,,0.00,meteobridge,2013-10-06 06:23:00,
2013-10-06 01:29:00,43.2,42.6,29.71,South,180,0.0,0.0,98,0.00,,,0.00,meteobridge,2013-10-06 06:29:00,
2013-10-06 01:34:00,43.0,42.4,29.71,South,180,2.2,3.1,98,0.00,,,0.00,meteobridge,2013-10-06 06:34:00,
2013-10-06 01:40:00,42.8,42.3,29.70,South,180,0.0,0.0,98,0.00,,,0.00,meteobridge,2013-10-06 06:40:00,
2013-10-06 01:46:00,42.8,42.3,29.70,South,180,0.0,1.6,98,0.00,,,0.00,meteobridge,2013-10-06 06:46:00,
2013-10-06 01:51:00,42.8,42.3,29.70,SW,225,0.0,0.7,98,0.00,,,0.00,meteobridge,2013-10-06 06:51:00,
2013-10-06 01:57:00,43.0,42.4,29.70,South,180,0.0,0.0,98,0.00,,,0.00,meteobridge,2013-10-06 06:57:00,
2013-10-06 02:03:00,43.2,42.6,29.70,South,180,2.2,2.2,98,0.00,,,0.00,meteobridge,2013-10-06 07:03:00,
2013-10-06 02:08:00,43.3,42.8,29.70,South,180,3.1,3.1,98,0.00,,,0.00,meteobridge,2013-10-06 07:08:00,
2013-10-06 02:14:00,43.5,43.0,29.70,South,180,3.8,3.8,98,0.00,,,0.00,meteobridge,2013-10-06 07:14:00,
2013-10-06 02:19:00,43.7,43.2,29.70,WSW,248,0.0,0.7,98,0.00,,,0.00,meteobridge,2013-10-06 07:19:00,
2013-10-06 02:24:00,43.9,43.3,29.70,East,90,0.0,0.0,98,0.00,,,0.00,meteobridge,2013-10-06 07:24:00,
2013-10-06 02:30:00,44.1,43.5,29.69,South,180,0.0,0.0,98,0.00,,,0.00,meteobridge,2013-10-06 07:30:00,
2013-10-06 02:36:00,44.1,43.5,29.69,South,180,0.0,0.0,98,0.00,,,0.00,meteobridge,2013-10-06 07:36:00,
2013-10-06 02:41:00,44.2,43.7,29.69,South,180,0.0,0.0,98,0.00,,,0.00,meteobridge,2013-10-06 07:41:00,
2013-10-06 02:47:00,44.4,43.9,29.69,West,270,0.0,0.0,98,0.00,,,0.00,meteobridge,2013-10-06 07:47:00,
2013-10-06 02:53:00,44.6,43.9,29.68,NW,315,0.0,0.0,97,0.00,,,0.00,meteobridge,2013-10-06 07:53:00,
2013-10-06 02:58:00,44.8,44.1,29.68,West,270,0.0,0.0,97,0.00,,,0.00,meteobridge,2013-10-06 07:58:00,
2013-10-06 03:04:00,45.0,44.2,29.68,NW,315,0.0,0.0,97,0.00,,,0.00,meteobridge,2013-10-06 08:04:00,
2013-10-06 03:10:00,45.0,44.2,29.68,SW,225,0.0,0.0,97,0.00,,,0.00,meteobridge,2013-10-06 08:10:00,
2013-10-06 03:15:00,45.0,44.2,29.68,SW,225,0.0,0.0,97,0.00,,,0.00,meteobridge,2013-10-06 08:15:00,
2013-10-06 03:21:00,45.1,44.4,29.67,North,0,0.0,0.0,97,0.00,,,0.00,meteobridge,2013-10-06 08:21:00,
2013-10-06 03:26:00,45.3,44.6,29.67,NW,315,0.0,0.0,97,0.00,,,0.00,meteobridge,2013-10-06 08:26:00,
2013-10-06 03:32:00,45.3,44.6,29.68,South,180,0.0,0.0,97,0.00,,,0.00,meteobridge,2013-10-06 08:32:00,
2013-10-06 03:38:00,45.3,44.6,29.67,South,180,0.0,0.0,97,0.00,,,0.00,meteobridge,2013-10-06 08:38:00,
2013-10-06 03:43:00,45.5,44.8,29.67,NW,315,0.0,0.0,97,0.00,,,0.00,meteobridge,2013-10-06 08:43:00,
2013-10-06 03:49:00,45.7,45.0,29.67,North,0,0.0,0.0,97,0.00,,,0.00,meteobridge,2013-10-06 08:49:00,
2013-10-06 03:55:00,46.0,45.3,29.67,NW,315,1.6,1.6,97,0.00,,,0.00,meteobridge,2013-10-06 08:55:00,
2013-10-06 04:00:00,46.2,45.5,29.67,West,270,0.0,0.0,97,0.00,,,0.00,meteobridge,2013-10-06 09:00:00,
2013-10-06 04:06:00,46.2,45.5,29.67,SW,225,1.6,1.6,97,0.00,,,0.00,meteobridge,2013-10-06 09:06:00,
2013-10-06 04:11:00,46.2,45.5,29.67,SW,225,0.7,0.7,97,0.00,,,0.00,meteobridge,2013-10-06 09:11:00,
2013-10-06 04:16:00,46.4,46.2,29.67,SW,225,2.2,2.2,99,0.00,,,0.00,meteobridge,2013-10-06 09:16:00,
2013-10-06 04:22:00,46.6,46.4,29.67,SW,225,0.7,1.6,99,0.00,,,0.00,meteobridge,2013-10-06 09:22:00,
2013-10-06 04:28:00,46.6,46.4,29.66,SW,225,2.2,2.2,99,0.00,,,0.00,meteobridge,2013-10-06 09:28:00,
2013-10-06 04:33:00,46.8,46.6,29.66,SW,225,1.6,1.6,99,0.00,,,0.00,meteobridge,2013-10-06 09:33:00,
2013-10-06 04:39:00,46.8,46.6,29.67,SW,225,0.0,0.7,99,0.00,,,0.00,meteobridge,2013-10-06 09:39:00,
2013-10-06 04:45:00,46.9,46.8,29.67,SW,225,0.7,1.6,99,0.00,,,0.00,meteobridge,2013-10-06 09:45:00,
2013-10-06 04:50:00,46.8,46.6,29.67,SW,225,4.5,4.5,99,0.00,,,0.00,meteobridge,2013-10-06 09:50:00,
2013-10-06 04:56:00,46.6,46.4,29.67,SW,225,2.2,3.8,99,0.00,,,0.00,meteobridge,2013-10-06 09:56:00,
2013-10-06 05:02:00,46.6,46.4,29.67,SW,225,4.5,4.5,99,0.00,,,0.00,meteobridge,2013-10-06 10:02:00,
2013-10-06 05:07:00,46.4,46.2,29.67,South,180,2.2,2.2,99,0.00,,,0.00,meteobridge,2013-10-06 10:07:00,
2013-10-06 05:13:00,46.6,46.4,29.67,SW,225,2.2,3.1,99,0.00,,,0.00,meteobridge,2013-10-06 10:13:00,
2013-10-06 05:18:00,46.4,46.2,29.67,SW,225,2.2,2.2,99,0.00,,,0.00,meteobridge,2013-10-06 10:18:00,
2013-10-06 05:24:00,46.4,46.2,29.67,West,270,3.8,3.8,99,0.00,,,0.00,meteobridge,2013-10-06 10:24:00,
2013-10-06 05:30:00,46.2,45.5,29.66,WNW,293,2.2,3.1,97,0.00,,,0.00,meteobridge,2013-10-06 10:30:00,
2013-10-06 05:35:00,46.2,45.5,29.66,NW,315,2.2,3.1,97,0.00,,,0.00,meteobridge,2013-10-06 10:35:00,
2013-10-06 05:41:00,46.2,45.5,29.66,SW,225,0.7,1.6,97,0.00,,,0.00,meteobridge,2013-10-06 10:41:00,
2013-10-06 05:47:00,46.2,45.5,29.67,SE,135,0.0,0.7,97,0.00,,,0.00,meteobridge,2013-10-06 10:47:00,
2013-10-06 05:52:00,46.2,45.5,29.67,SE,135,1.6,1.6,97,0.00,,,0.00,meteobridge,2013-10-06 10:52:00,
2013-10-06 05:58:00,46.2,45.5,29.67,South,180,2.2,2.2,97,0.00,,,0.00,meteobridge,2013-10-06 10:58:00,
2013-10-06 06:04:00,46.2,45.5,29.67,South,180,1.6,1.6,97,0.00,,,0.00,meteobridge,2013-10-06 11:04:00,
2013-10-06 06:09:00,46.2,45.5,29.67,SW,225,2.2,2.2,97,0.00,,,0.00,meteobridge,2013-10-06 11:09:00,
2013-10-06 06:15:00,46.2,45.5,29.67,South,180,2.2,2.2,97,0.00,,,0.00,meteobridge,2013-10-06 11:15:00,
2013-10-06 06:20:00,46.2,45.5,29.68,West,270,2.2,3.1,97,0.00,,,0.00,meteobridge,2013-10-06 11:20:00,
2013-10-06 06:26:00,46.2,45.5,29.67,SW,225,3.1,3.8,97,0.00,,,0.00,meteobridge,2013-10-06 11:26:00,
2013-10-06 06:32:00,46.4,46.2,29.67,West,270,2.2,3.1,99,0.00,,,0.00,meteobridge,2013-10-06 11:32:00,
2013-10-06 06:37:00,46.6,46.4,29.67,West,270,3.1,3.1,99,0.00,,,0.00,meteobridge,2013-10-06 11:37:00,
2013-10-06 06:43:00,46.6,46.4,29.67,South,180,0.7,1.6,99,0.00,,,0.00,meteobridge,2013-10-06 11:43:00,
2013-10-06 06:49:00,46.8,46.6,29.67,SE,135,0.0,0.0,99,0.00,,,0.00,meteobridge,2013-10-06 11:49:00,
2013-10-06 06:54:00,46.9,46.8,29.67,SW,225,1.6,1.6,99,0.00,,,0.00,meteobridge,2013-10-06 11:54:00,
2013-10-06 07:00:00,47.5,47.3,29.67,NW,315,1.6,1.6,99,0.01,,,0.01,meteobridge,2013-10-06 12:00:00,
2013-10-06 07:06:00,48.2,48.0,29.67,WNW,293,3.8,4.5,99,0.01,,,0.01,meteobridge,2013-10-06 12:06:00,
2013-10-06 07:11:00,48.2,48.0,29.67,West,270,3.8,3.8,99,0.02,,,0.02,meteobridge,2013-10-06 12:11:00,
2013-10-06 07:17:00,48.2,48.0,29.67,NW,315,3.1,3.1,99,0.02,,,0.02,meteobridge,2013-10-06 12:17:00,
2013-10-06 07:23:00,48.2,48.0,29.67,NW,315,2.2,3.8,99,0.02,,,0.02,meteobridge,2013-10-06 12:23:00,
2013-10-06 07:28:00,48.2,48.0,29.67,NW,315,3.8,3.8,99,0.02,,,0.02,meteobridge,2013-10-06 12:28:00,
2013-10-06 07:34:00,48.4,48.2,29.67,North,0,0.0,0.7,99,0.02,,,0.02,meteobridge,2013-10-06 12:34:00,
2013-10-06 07:39:00,48.4,48.2,29.67,West,270,2.2,2.2,99,0.02,,,0.02,meteobridge,2013-10-06 12:39:00,
2013-10-06 07:45:00,48.2,48.0,29.67,NW,315,1.6,3.1,99,0.02,,,0.02,meteobridge,2013-10-06 12:45:00,
2013-10-06 07:51:00,48.2,48.0,29.67,North,0,1.6,2.2,99,0.02,,,0.02,meteobridge,2013-10-06 12:51:00,
2013-10-06 07:56:00,48.2,48.0,29.66,NW,315,2.2,3.1,99,0.02,,,0.02,meteobridge,2013-10-06 12:56:00,
2013-10-06 08:02:00,48.4,48.2,29.66,NW,315,3.1,3.1,99,0.01,,,0.02,meteobridge,2013-10-06 13:02:00,
2013-10-06 08:08:00,48.6,48.4,29.67,NW,315,3.1,3.8,99,0.01,,,0.02,meteobridge,2013-10-06 13:08:00,
2013-10-06 08:13:00,48.7,48.6,29.67,NNW,338,4.5,4.5,99,0.00,,,0.02,meteobridge,2013-10-06 13:13:00,
2013-10-06 08:19:00,48.9,48.7,29.67,NW,315,6.9,6.9,99,0.00,,,0.02,meteobridge,2013-10-06 13:19:00,
2013-10-06 08:25:00,48.9,48.7,29.67,North,0,6.9,7.6,99,0.00,,,0.02,meteobridge,2013-10-06 13:25:00,
2013-10-06 08:30:00,49.1,48.9,29.67,North,0,8.3,8.3,99,0.00,,,0.02,meteobridge,2013-10-06 13:30:00,
2013-10-06 08:36:00,48.9,48.7,29.67,North,0,9.8,9.8,99,0.00,,,0.02,meteobridge,2013-10-06 13:36:00,
2013-10-06 08:41:00,48.9,48.7,29.67,North,0,9.8,10.7,99,0.00,,,0.02,meteobridge,2013-10-06 13:41:00,
2013-10-06 08:47:00,48.9,48.7,29.68,NW,315,7.6,11.4,99,0.00,,,0.02,meteobridge,2013-10-06 13:47:00,
2013-10-06 08:52:00,49.1,48.9,29.67,North,0,9.2,9.2,99,0.00,,,0.02,meteobridge,2013-10-06 13:52:00,
2013-10-06 08:58:00,49.1,48.9,29.67,NE,45,9.8,9.8,99,0.00,,,0.02,meteobridge,2013-10-06 13:58:00,
2013-10-06 09:04:00,49.5,49.3,29.68,NNW,338,6.9,7.6,99,0.00,,,0.02,meteobridge,2013-10-06 14:04:00,
2013-10-06 09:09:00,49.5,49.3,29.68,NW,315,11.4,12.1,99,0.00,,,0.02,meteobridge,2013-10-06 14:09:00,
2013-10-06 09:15:00,49.5,49.3,29.68,North,0,10.7,10.7,99,0.00,,,0.02,meteobridge,2013-10-06 14:15:00,
2013-10-06 09:20:00,49.5,49.3,29.68,North,0,9.2,9.2,99,0.01,,,0.04,meteobridge,2013-10-06 14:20:00,
2013-10-06 09:26:00,49.3,49.1,29.68,North,0,13.6,13.6,99,0.01,,,0.04,meteobridge,2013-10-06 14:26:00,
2013-10-06 09:32:00,49.3,49.1,29.68,North,0,9.8,9.8,99,0.01,,,0.04,meteobridge,2013-10-06 14:32:00,
2013-10-06 09:37:00,49.3,49.1,29.69,North,0,9.8,10.7,99,0.02,,,0.05,meteobridge,2013-10-06 14:37:00,
2013-10-06 09:43:00,49.3,49.1,29.68,North,0,14.5,14.5,99,0.02,,,0.05,meteobridge,2013-10-06 14:43:00,
2013-10-06 09:49:00,49.3,49.1,29.69,North,0,9.8,10.7,99,0.02,,,0.05,meteobridge,2013-10-06 14:49:00,
2013-10-06 09:54:00,49.5,49.3,29.69,North,0,11.4,11.4,99,0.02,,,0.05,meteobridge,2013-10-06 14:54:00,
2013-10-06 10:00:00,49.3,49.1,29.69,NNW,338,13.0,19.7,99,0.02,,,0.05,meteobridge,2013-10-06 15:00:00,
2013-10-06 10:06:00,49.3,49.1,29.69,North,0,12.1,13.6,99,0.02,,,0.05,meteobridge,2013-10-06 15:06:00,
2013-10-06 10:11:00,49.5,49.3,29.69,North,0,15.9,17.4,99,0.02,,,0.05,meteobridge,2013-10-06 15:11:00,
2013-10-06 10:17:00,49.5,49.3,29.70,NE,45,13.6,16.8,99,0.02,,,0.05,meteobridge,2013-10-06 15:17:00,
2013-10-06 10:22:00,49.3,49.1,29.69,North,0,13.6,13.6,99,0.01,,,0.05,meteobridge,2013-10-06 15:22:00,
2013-10-06 10:28:00,49.3,49.1,29.70,NNW,338,11.4,12.1,99,0.01,,,0.05,meteobridge,2013-10-06 15:28:00,
2013-10-06 10:34:00,49.5,49.3,29.70,North,0,9.8,12.1,99,0.01,,,0.05,meteobridge,2013-10-06 15:34:00,
2013-10-06 10:39:00,49.6,49.5,29.70,NNE,23,10.7,11.4,99,0.00,,,0.05,meteobridge,2013-10-06 15:39:00,
2013-10-06 10:45:00,49.6,49.5,29.70,North,0,11.4,13.0,99,0.00,,,0.05,meteobridge,2013-10-06 15:45:00,
2013-10-06 10:51:00,49.8,49.5,29.70,NNE,23,13.0,13.6,99,0.00,,,0.05,meteobridge,2013-10-06 15:51:00,
2013-10-06 10:56:00,50.0,49.5,29.70,NNE,23,13.6,15.2,98,0.00,,,0.05,meteobridge,2013-10-06 15:56:00,
2013-10-06 11:02:00,50.2,49.3,29.70,North,0,12.1,15.2,97,0.00,,,0.05,meteobridge,2013-10-06 16:02:00,
2013-10-06 11:08:00,50.4,49.3,29.70,North,0,14.5,14.5,96,0.00,,,0.05,meteobridge,2013-10-06 16:08:00,
2013-10-06 11:13:00,50.4,48.9,29.70,NNE,23,13.6,16.8,95,0.00,,,0.05,meteobridge,2013-10-06 16:13:00,
2013-10-06 11:19:00,50.5,49.1,29.70,NE,45,10.7,11.4,95,0.00,,,0.05,meteobridge,2013-10-06 16:19:00,
2013-10-06 11:25:00,50.5,49.1,29.70,North,0,13.0,13.0,95,0.00,,,0.05,meteobridge,2013-10-06 16:25:00,
2013-10-06 11:30:00,50.5,49.1,29.70,North,0,11.4,13.0,95,0.00,,,0.05,meteobridge,2013-10-06 16:30:00,
2013-10-06 11:36:00,50.7,49.3,29.70,North,0,12.1,13.0,95,0.00,,,0.05,meteobridge,2013-10-06 16:36:00,
2013-10-06 11:41:00,50.7,49.3,29.70,North,0,14.5,14.5,95,0.00,,,0.05,meteobridge,2013-10-06 16:41:00,
2013-10-06 11:47:00,51.1,49.6,29.70,NE,45,15.9,15.9,95,0.00,,,0.05,meteobridge,2013-10-06 16:47:00,
2013-10-06 11:53:00,50.9,49.3,29.70,NE,45,14.5,14.5,94,0.00,,,0.05,meteobridge,2013-10-06 16:53:00,
2013-10-06 11:58:00,50.9,49.3,29.70,North,0,13.6,13.6,94,0.00,,,0.05,meteobridge,2013-10-06 16:58:00,
2013-10-06 12:04:00,50.9,49.3,29.70,North,0,12.1,12.1,94,0.00,,,0.05,meteobridge,2013-10-06 17:04:00,
2013-10-06 12:10:00,50.9,49.3,29.70,North,0,10.7,14.5,94,0.00,,,0.05,meteobridge,2013-10-06 17:10:00,
2013-10-06 12:15:00,51.6,50.0,29.70,NE,45,12.1,12.1,94,0.00,,,0.05,meteobridge,2013-10-06 17:15:00,
2013-10-06 12:21:00,51.4,49.5,29.70,NE,45,17.4,17.4,93,0.00,,,0.05,meteobridge,2013-10-06 17:21:00,
2013-10-06 12:27:00,51.6,49.5,29.70,North,0,12.1,13.6,92,0.00,,,0.05,meteobridge,2013-10-06 17:27:00,
2013-10-06 12:32:00,51.8,48.9,29.70,NW,315,13.0,13.0,90,0.00,,,0.05,meteobridge,2013-10-06 17:32:00,
2013-10-06 12:38:00,51.6,48.7,29.70,North,0,13.6,14.5,90,0.00,,,0.05,meteobridge,2013-10-06 17:38:00,
2013-10-06 12:43:00,51.6,48.7,29.70,North,0,16.8,16.8,90,0.00,,,0.05,meteobridge,2013-10-06 17:43:00,
2013-10-06 12:49:00,51.8,48.7,29.70,NNW,338,8.3,11.4,89,0.00,,,0.05,meteobridge,2013-10-06 17:49:00,
2013-10-06 12:55:00,52.2,48.7,29.70,North,0,11.4,12.1,88,0.00,,,0.05,meteobridge,2013-10-06 17:55:00,
2013-10-06 13:00:00,52.0,48.6,29.70,WNW,293,11.4,11.4,88,0.00,,,0.05,meteobridge,2013-10-06 18:00:00,
2013-10-06 13:06:00,51.8,48.7,29.70,North,0,10.7,12.1,89,0.00,,,0.05,meteobridge,2013-10-06 18:06:00,
2013-10-06 13:12:00,51.6,48.6,29.70,North,0,13.6,13.6,89,0.00,,,0.05,meteobridge,2013-10-06 18:12:00,
2013-10-06 13:17:00,51.8,48.4,29.70,WNW,293,8.3,8.3,88,0.00,,,0.05,meteobridge,2013-10-06 18:17:00,
2013-10-06 13:23:00,51.6,48.7,29.70,NW,315,9.8,9.8,90,0.00,,,0.05,meteobridge,2013-10-06 18:23:00,
2013-10-06 13:29:00,51.4,48.9,29.70,North,0,9.8,11.4,91,0.00,,,0.05,meteobridge,2013-10-06 18:29:00,
2013-10-06 13:34:00,51.4,49.3,29.70,WNW,293,9.2,9.2,92,0.00,,,0.05,meteobridge,2013-10-06 18:34:00,
2013-10-06 13:40:00,51.4,49.5,29.70,North,0,9.8,11.4,93,0.00,,,0.05,meteobridge,2013-10-06 18:40:00,
2013-10-06 13:46:00,51.3,49.1,29.70,North,0,11.4,12.1,92,0.00,,,0.05,meteobridge,2013-10-06 18:46:00,
2013-10-06 13:51:00,51.3,49.1,29.70,NNW,338,13.6,13.6,92,0.00,,,0.05,meteobridge,2013-10-06 18:51:00,
2013-10-06 13:57:00,51.1,49.1,29.70,NW,315,6.9,11.4,93,0.00,,,0.05,meteobridge,2013-10-06 18:57:00,
2013-10-06 14:02:00,51.1,49.1,29.70,North,0,11.4,14.5,93,0.00,,,0.05,meteobridge,2013-10-06 19:02:00,
2013-10-06 14:08:00,50.9,49.3,29.70,NNW,338,9.2,12.1,94,0.00,,,0.05,meteobridge,2013-10-06 19:08:00,
2013-10-06 14:14:00,50.9,49.3,29.70,North,0,10.7,10.7,94,0.00,,,0.05,meteobridge,2013-10-06 19:14:00,
2013-10-06 14:19:00,51.1,49.6,29.70,North,0,9.2,9.2,95,0.00,,,0.05,meteobridge,2013-10-06 19:19:00,
2013-10-06 14:25:00,51.1,49.6,29.70,SW,225,6.0,8.3,95,0.00,,,0.05,meteobridge,2013-10-06 19:25:00,
2013-10-06 14:31:00,51.1,49.6,29.70,NW,315,8.3,12.1,95,0.00,,,0.05,meteobridge,2013-10-06 19:31:00,
2013-10-06 14:36:00,50.9,49.8,29.70,NNW,338,14.5,14.5,96,0.00,,,0.05,meteobridge,2013-10-06 19:36:00,
2013-10-06 14:42:00,50.9,49.8,29.70,NW,315,14.5,15.9,96,0.00,,,0.05,meteobridge,2013-10-06 19:42:00,
2013-10-06 14:47:00,50.9,49.8,29.70,NW,315,15.2,16.8,96,0.01,,,0.06,meteobridge,2013-10-06 19:47:00,
2013-10-06 14:53:00,50.2,49.1,29.71,NW,315,17.4,22.1,96,0.01,,,0.06,meteobridge,2013-10-06 19:53:00,
2013-10-06 14:59:00,49.8,48.9,29.71,NW,315,16.8,16.8,97,0.01,,,0.06,meteobridge,2013-10-06 19:59:00,
2013-10-06 15:04:00,49.3,48.4,29.71,North,0,15.2,22.8,97,0.01,,,0.06,meteobridge,2013-10-06 20:04:00,
2013-10-06 15:10:00,49.5,48.6,29.71,North,0,14.5,16.8,97,0.01,,,0.06,meteobridge,2013-10-06 20:10:00,
2013-10-06 15:16:00,49.6,48.7,29.71,NW,315,13.0,15.9,97,0.01,,,0.06,meteobridge,2013-10-06 20:16:00,
2013-10-06 15:21:00,49.6,48.7,29.72,North,0,17.4,19.0,97,0.01,,,0.06,meteobridge,2013-10-06 20:21:00,
2013-10-06 15:27:00,50.0,48.6,29.72,North,0,14.5,16.8,95,0.01,,,0.06,meteobridge,2013-10-06 20:27:00,
2013-10-06 15:33:00,50.2,48.6,29.72,NNW,338,14.5,14.5,94,0.01,,,0.06,meteobridge,2013-10-06 20:33:00,
2013-10-06 15:38:00,50.2,48.6,29.72,NW,315,9.8,11.4,94,0.01,,,0.06,meteobridge,2013-10-06 20:38:00,
2013-10-06 15:44:00,50.4,48.4,29.72,NW,315,15.2,15.2,93,0.01,,,0.06,meteobridge,2013-10-06 20:44:00,
2013-10-06 15:49:00,50.2,48.2,29.72,North,0,9.8,10.7,93,0.00,,,0.06,meteobridge,2013-10-06 20:49:00,
2013-10-06 15:55:00,50.0,48.0,29.72,WNW,293,18.3,18.3,93,0.00,,,0.06,meteobridge,2013-10-06 20:55:00,
2013-10-06 16:01:00,49.8,48.2,29.72,North,0,15.9,15.9,94,0.00,,,0.06,meteobridge,2013-10-06 21:01:00,
2013-10-06 16:06:00,49.8,48.2,29.72,NW,315,9.8,13.6,94,0.00,,,0.06,meteobridge,2013-10-06 21:06:00,
2013-10-06 16:12:00,49.8,48.2,29.73,NW,315,9.8,9.8,94,0.00,,,0.06,meteobridge,2013-10-06 21:12:00,
2013-10-06 16:18:00,49.6,47.7,29.73,NW,315,13.6,13.6,93,0.00,,,0.06,meteobridge,2013-10-06 21:18:00,
2013-10-06 16:23:00,49.5,47.5,29.73,West,270,15.9,15.9,93,0.00,,,0.06,meteobridge,2013-10-06 21:23:00,
2013-10-06 16:29:00,49.5,47.3,29.74,North,0,9.8,11.4,92,0.00,,,0.06,meteobridge,2013-10-06 21:29:00,
2013-10-06 16:35:00,49.5,47.3,29.74,North,0,22.8,22.8,92,0.00,,,0.06,meteobridge,2013-10-06 21:35:00,
2013-10-06 16:40:00,49.1,46.2,29.74,NNW,338,15.2,15.2,90,0.00,,,0.06,meteobridge,2013-10-06 21:40:00,
2013-10-06 16:46:00,48.9,46.0,29.74,North,0,11.4,19.0,90,0.00,,,0.06,meteobridge,2013-10-06 21:46:00,
2013-10-06 16:52:00,48.7,45.9,29.74,North,0,15.2,16.8,90,0.00,,,0.06,meteobridge,2013-10-06 21:52:00,
2013-10-06 16:57:00,48.7,45.9,29.75,North,0,14.5,15.2,90,0.00,,,0.06,meteobridge,2013-10-06 21:57:00,
2013-10-06 17:03:00,48.6,46.0,29.75,NW,315,16.8,18.3,91,0.00,,,0.06,meteobridge,2013-10-06 22:03:00,
2013-10-06 17:08:00,48.2,46.0,29.75,North,0,13.0,15.2,92,0.00,,,0.06,meteobridge,2013-10-06 22:08:00,
2013-10-06 17:14:00,48.0,46.6,29.75,NNW,338,9.2,15.2,95,0.00,,,0.06,meteobridge,2013-10-06 22:14:00,
2013-10-06 17:20:00,47.8,46.4,29.76,North,0,9.2,14.5,95,0.00,,,0.06,meteobridge,2013-10-06 22:20:00,
2013-10-06 17:25:00,47.8,46.8,29.76,NW,315,8.3,9.8,96,0.00,,,0.06,meteobridge,2013-10-06 22:25:00,
2013-10-06 17:31:00,47.7,46.9,29.76,North,0,13.6,13.6,97,0.01,,,0.07,meteobridge,2013-10-06 22:31:00,
2013-10-06 17:37:00,47.7,46.9,29.76,North,0,10.7,10.7,97,0.02,,,0.08,meteobridge,2013-10-06 22:37:00,
2013-10-06 17:42:00,47.7,47.1,29.76,NW,315,11.4,12.1,98,0.02,,,0.08,meteobridge,2013-10-06 22:42:00,
2013-10-06 17:48:00,47.7,47.1,29.76,NW,315,8.3,9.2,98,0.04,,,0.09,meteobridge,2013-10-06 22:48:00,
2013-10-06 17:54:00,47.8,47.7,29.76,North,0,6.0,10.7,99,0.04,,,0.09,meteobridge,2013-10-06 22:54:00,
2013-10-06 17:59:00,47.8,47.7,29.76,NNW,338,6.9,8.3,99,0.04,,,0.09,meteobridge,2013-10-06 22:59:00,
2013-10-06 18:05:00,48.4,47.8,29.77,NNW,338,7.6,8.3,98,0.04,,,0.09,meteobridge,2013-10-06 23:05:00,
2013-10-06 18:10:00,48.4,47.8,29.77,North,0,9.8,9.8,98,0.04,,,0.09,meteobridge,2013-10-06 23:10:00,
2013-10-06 18:16:00,48.6,48.0,29.78,NW,315,7.6,7.6,98,0.04,,,0.09,meteobridge,2013-10-06 23:16:00,
2013-10-06 18:22:00,48.7,48.2,29.78,NW,315,6.9,6.9,98,0.04,,,0.09,meteobridge,2013-10-06 23:22:00,
2013-10-06 18:27:00,48.9,48.4,29.78,West,270,6.9,8.3,98,0.02,,,0.09,meteobridge,2013-10-06 23:27:00,
2013-10-06 18:33:00,49.1,48.2,29.78,NW,315,6.9,6.9,97,0.01,,,0.09,meteobridge,2013-10-06 23:33:00,
2013-10-06 18:39:00,48.7,47.8,29.78,NW,315,4.5,4.5,97,0.01,,,0.09,meteobridge,2013-10-06 23:39:00,
2013-10-06 18:44:00,48.4,47.3,29.78,WNW,293,3.1,5.4,96,0.00,,,0.09,meteobridge,2013-10-06 23:44:00,
2013-10-06 18:50:00,48.0,47.1,29.79,NW,315,3.1,3.8,97,0.00,,,0.09,meteobridge,2013-10-06 23:50:00,
2013-10-06 18:56:00,47.7,46.9,29.79,NW,315,3.8,4.5,97,0.00,,,0.09,meteobridge,2013-10-06 23:56:00,
2013-10-06 19:01:00,47.3,46.8,29.79,NW,315,2.2,3.1,98,0.00,,,0.09,meteobridge,2013-10-07 00:01:00,
2013-10-06 19:07:00,47.1,46.6,29.79,NW,315,2.2,2.2,98,0.00,,,0.09,meteobridge,2013-10-07 00:07:00,